Florence Regional Airport
KFLO : now visible

Airfield :











YOU CAN JOIN US ON...

 
LOGIN :

Register | Disclaimer

   EN    FR    IT 

 









Legend :    VFR   Marginal VFR   IFR   Intensive IFR   Very Intensive IFR
Visi :
Ceiling :
>= 8 km
>= 3000ft
5 to 8 km
1000 to 3000 ft
1500m to 5 km
500 to 1000 ft
800 to 1500m
200 to 500 ft
< 800m
< 200 ft
Symbols :   Thunderstorms  Fog  Heavy snow  Heavy precipitations  Wind > 20 kt






- Airport Elevation : 146 ft
- IATA code : FLO


KFLO - Florence Regional

CURRENT METAR :
  • 082053Z 03009KT 10SM BKN085 13/02 A3029 RMK AO2 SLP256 T01330022 56022

EXPIRED METARs :
  • 081953Z 36008KT 10SM SCT070 14/02 A3031 RMK AO2 SLP264 T01390017
  • 081853Z 02006KT 10SM CLR 13/01 A3033 RMK AO2 SLP269 T01330011

TAF KFLO
Valid from the 08 at 18:00 until the 09 at 18:00 UTC


081730Z 0818/0918 35005KT P6SM SCT070
FM081900 01007KT P6SM OVC050
FM090200 02004KT P6SM OVC015
FM090600 03002KT 3SM BR BKN008 OVC015
FM090900 00000KT 1SM BR OVC004



MET'MAP, your aeronautical weather chart ! - Copyright ORBIFLY December 2007 - Disclaimer

ORBIFLY MET'MAP TEAM :

Programming & Development : Alexandra Zaïnal
Concept & original design : Baudouin d'Aumeries
Assistance for programming : Marc-Olivier Méhu
Technical & hardware support : Manuel Goepfert

Contact : metmap@orbifly.com




SOURCES & CREDITS :

   NOAA       Earth
Advisory